sensor_id;sensor_type;location;lat;lon;timestamp;P1;durP1;ratioP1;P2;durP2;ratioP2
75135;SDS011;63707;52.212;9.540;2023-07-30T00:01:55;3.60;;;2.80;;
75135;SDS011;63707;52.212;9.540;2023-07-30T00:04:21;6.65;;;3.33;;
75135;SDS011;63707;52.212;9.540;2023-07-30T00:06:48;5.05;;;3.20;;
75135;SDS011;63707;52.212;9.540;2023-07-30T00:09:13;6.40;;;2.72;;
75135;SDS011;63707;52.212;9.540;2023-07-30T00:11:39;3.80;;;3.17;;
75135;SDS011;63707;52.212;9.540;2023-07-30T00:14:04;4.75;;;2.58;;
75135;SDS011;63707;52.212;9.540;2023-07-30T00:16:30;4.38;;;2.58;;
75135;SDS011;63707;52.212;9.540;2023-07-30T00:18:55;3.20;;;2.60;;
75135;SDS011;63707;52.212;9.540;2023-07-30T00:21:21;5.10;;;2.90;;
75135;SDS011;63707;52.212;9.540;2023-07-30T00:23:48;5.97;;;2.80;;
75135;SDS011;63707;52.212;9.540;2023-07-30T00:26:14;4.63;;;3.05;;
75135;SDS011;63707;52.212;9.540;2023-07-30T00:28:39;6.10;;;2.90;;
75135;SDS011;63707;52.212;9.540;2023-07-30T00:31:05;7.00;;;2.75;;
75135;SDS011;63707;52.212;9.540;2023-07-30T00:33:30;4.45;;;2.90;;
75135;SDS011;63707;52.212;9.540;2023-07-30T00:35:56;3.35;;;2.80;;
75135;SDS011;63707;52.212;9.540;2023-07-30T00:38:21;5.15;;;2.80;;
75135;SDS011;63707;52.212;9.540;2023-07-30T00:40:48;4.05;;;3.00;;
75135;SDS011;63707;52.212;9.540;2023-07-30T00:43:14;4.75;;;3.05;;
75135;SDS011;63707;52.212;9.540;2023-07-30T00:45:40;4.90;;;3.00;;
75135;SDS011;63707;52.212;9.540;2023-07-30T00:48:07;6.25;;;3.33;;
75135;SDS011;63707;52.212;9.540;2023-07-30T00:50:34;4.32;;;3.00;;
75135;SDS011;63707;52.212;9.540;2023-07-30T00:52:59;5.47;;;3.17;;
75135;SDS011;63707;52.212;9.540;2023-07-30T00:55:25;4.75;;;3.30;;
75135;SDS011;63707;52.212;9.540;2023-07-30T00:57:52;7.05;;;3.00;;
75135;SDS011;63707;52.212;9.540;2023-07-30T01:00:18;6.78;;;3.60;;
75135;SDS011;63707;52.212;9.540;2023-07-30T01:02:44;5.20;;;3.50;;
75135;SDS011;63707;52.212;9.540;2023-07-30T01:05:09;6.85;;;3.60;;
75135;SDS011;63707;52.212;9.540;2023-07-30T01:07:35;6.32;;;3.60;;
75135;SDS011;63707;52.212;9.540;2023-07-30T01:10:00;4.47;;;3.67;;
75135;SDS011;63707;52.212;9.540;2023-07-30T01:12:27;7.65;;;3.63;;
75135;SDS011;63707;52.212;9.540;2023-07-30T01:14:55;6.07;;;3.65;;
75135;SDS011;63707;52.212;9.540;2023-07-30T01:17:22;5.70;;;3.65;;
75135;SDS011;63707;52.212;9.540;2023-07-30T01:19:48;7.10;;;3.40;;
75135;SDS011;63707;52.212;9.540;2023-07-30T01:22:16;5.38;;;3.80;;
75135;SDS011;63707;52.212;9.540;2023-07-30T01:24:41;8.77;;;4.45;;
75135;SDS011;63707;52.212;9.540;2023-07-30T01:27:07;9.68;;;4.57;;
75135;SDS011;63707;52.212;9.540;2023-07-30T01:29:38;9.20;;;4.28;;
75135;SDS011;63707;52.212;9.540;2023-07-30T01:32:08;9.23;;;4.88;;
75135;SDS011;63707;52.212;9.540;2023-07-30T01:34:36;7.03;;;4.93;;
75135;SDS011;63707;52.212;9.540;2023-07-30T01:37:04;7.05;;;4.88;;
75135;SDS011;63707;52.212;9.540;2023-07-30T01:39:35;8.25;;;4.75;;
75135;SDS011;63707;52.212;9.540;2023-07-30T01:42:03;11.02;;;5.00;;
75135;SDS011;63707;52.212;9.540;2023-07-30T01:44:29;6.70;;;4.90;;
75135;SDS011;63707;52.212;9.540;2023-07-30T01:46:54;8.65;;;5.05;;
75135;SDS011;63707;52.212;9.540;2023-07-30T01:49:20;9.20;;;5.45;;
75135;SDS011;63707;52.212;9.540;2023-07-30T01:51:45;8.98;;;4.85;;
75135;SDS011;63707;52.212;9.540;2023-07-30T01:54:11;10.45;;;5.50;;
75135;SDS011;63707;52.212;9.540;2023-07-30T01:56:38;7.65;;;5.13;;
75135;SDS011;63707;52.212;9.540;2023-07-30T01:59:04;8.25;;;5.00;;
75135;SDS011;63707;52.212;9.540;2023-07-30T02:01:29;7.43;;;4.93;;
75135;SDS011;63707;52.212;9.540;2023-07-30T02:03:55;11.73;;;5.22;;
75135;SDS011;63707;52.212;9.540;2023-07-30T02:06:21;9.38;;;5.43;;
75135;SDS011;63707;52.212;9.540;2023-07-30T02:08:46;11.48;;;6.22;;
75135;SDS011;63707;52.212;9.540;2023-07-30T02:11:12;9.35;;;5.72;;
75135;SDS011;63707;52.212;9.540;2023-07-30T02:13:39;10.57;;;5.40;;
75135;SDS011;63707;52.212;9.540;2023-07-30T02:16:04;10.52;;;5.07;;
75135;SDS011;63707;52.212;9.540;2023-07-30T02:18:30;11.35;;;5.30;;
75135;SDS011;63707;52.212;9.540;2023-07-30T02:20:55;13.73;;;5.95;;
75135;SDS011;63707;52.212;9.540;2023-07-30T02:23:21;11.43;;;4.97;;
75135;SDS011;63707;52.212;9.540;2023-07-30T02:25:46;10.30;;;5.10;;
75135;SDS011;63707;52.212;9.540;2023-07-30T02:28:12;13.60;;;5.55;;
75135;SDS011;63707;52.212;9.540;2023-07-30T02:30:39;12.80;;;5.50;;
75135;SDS011;63707;52.212;9.540;2023-07-30T02:33:04;10.57;;;5.40;;
75135;SDS011;63707;52.212;9.540;2023-07-30T02:35:30;15.95;;;5.53;;
75135;SDS011;63707;52.212;9.540;2023-07-30T02:37:55;9.88;;;4.97;;
75135;SDS011;63707;52.212;9.540;2023-07-30T02:40:21;16.15;;;5.80;;
75135;SDS011;63707;52.212;9.540;2023-07-30T02:42:46;13.20;;;5.20;;
75135;SDS011;63707;52.212;9.540;2023-07-30T02:45:12;15.25;;;6.10;;
75135;SDS011;63707;52.212;9.540;2023-07-30T02:47:39;12.15;;;5.78;;
75135;SDS011;63707;52.212;9.540;2023-07-30T02:50:04;13.20;;;5.43;;
75135;SDS011;63707;52.212;9.540;2023-07-30T02:52:33;14.10;;;5.90;;
75135;SDS011;63707;52.212;9.540;2023-07-30T02:54:59;14.75;;;5.43;;
75135;SDS011;63707;52.212;9.540;2023-07-30T02:57:24;15.00;;;5.32;;
75135;SDS011;63707;52.212;9.540;2023-07-30T02:59:50;11.23;;;5.63;;
75135;SDS011;63707;52.212;9.540;2023-07-30T03:02:15;10.82;;;4.80;;
75135;SDS011;63707;52.212;9.540;2023-07-30T03:04:42;15.38;;;5.43;;
75135;SDS011;63707;52.212;9.540;2023-07-30T03:07:08;15.00;;;5.50;;
75135;SDS011;63707;52.212;9.540;2023-07-30T03:09:34;12.32;;;5.47;;
75135;SDS011;63707;52.212;9.540;2023-07-30T03:12:00;11.07;;;5.43;;
75135;SDS011;63707;52.212;9.540;2023-07-30T03:14:26;9.80;;;5.03;;
75135;SDS011;63707;52.212;9.540;2023-07-30T03:16:51;10.77;;;4.72;;
75135;SDS011;63707;52.212;9.540;2023-07-30T03:19:17;12.55;;;5.03;;
75135;SDS011;63707;52.212;9.540;2023-07-30T03:21:43;12.70;;;5.13;;
75135;SDS011;63707;52.212;9.540;2023-07-30T03:24:09;14.48;;;5.40;;
75135;SDS011;63707;52.212;9.540;2023-07-30T03:26:34;8.98;;;5.40;;
75135;SDS011;63707;52.212;9.540;2023-07-30T03:29:00;12.60;;;5.43;;
75135;SDS011;63707;52.212;9.540;2023-07-30T03:31:25;10.65;;;5.90;;
75135;SDS011;63707;52.212;9.540;2023-07-30T03:33:53;12.25;;;5.45;;
75135;SDS011;63707;52.212;9.540;2023-07-30T03:36:19;12.20;;;5.18;;
75135;SDS011;63707;52.212;9.540;2023-07-30T03:38:45;16.65;;;5.80;;
75135;SDS011;63707;52.212;9.540;2023-07-30T03:41:11;12.88;;;5.43;;
75135;SDS011;63707;52.212;9.540;2023-07-30T03:43:37;10.98;;;5.57;;
75135;SDS011;63707;52.212;9.540;2023-07-30T03:46:02;14.07;;;5.38;;
75135;SDS011;63707;52.212;9.540;2023-07-30T03:48:28;9.25;;;5.60;;
75135;SDS011;63707;52.212;9.540;2023-07-30T03:50:54;10.30;;;5.60;;
75135;SDS011;63707;52.212;9.540;2023-07-30T03:53:20;11.70;;;5.28;;
75135;SDS011;63707;52.212;9.540;2023-07-30T03:55:47;10.73;;;5.63;;
75135;SDS011;63707;52.212;9.540;2023-07-30T03:58:12;11.10;;;4.70;;
75135;SDS011;63707;52.212;9.540;2023-07-30T04:00:38;15.07;;;5.70;;
75135;SDS011;63707;52.212;9.540;2023-07-30T04:03:04;15.23;;;5.78;;
75135;SDS011;63707;52.212;9.540;2023-07-30T04:05:29;16.67;;;6.85;;
75135;SDS011;63707;52.212;9.540;2023-07-30T04:07:55;8.88;;;5.40;;
75135;SDS011;63707;52.212;9.540;2023-07-30T04:10:21;12.75;;;5.88;;
75135;SDS011;63707;52.212;9.540;2023-07-30T04:12:48;16.75;;;6.20;;
75135;SDS011;63707;52.212;9.540;2023-07-30T04:15:14;9.77;;;4.88;;
75135;SDS011;63707;52.212;9.540;2023-07-30T04:17:40;13.90;;;5.70;;
75135;SDS011;63707;52.212;9.540;2023-07-30T04:20:06;14.40;;;5.60;;
75135;SDS011;63707;52.212;9.540;2023-07-30T04:22:32;9.55;;;5.45;;
75135;SDS011;63707;52.212;9.540;2023-07-30T04:24:57;16.05;;;6.05;;
75135;SDS011;63707;52.212;9.540;2023-07-30T04:27:23;15.00;;;5.63;;
75135;SDS011;63707;52.212;9.540;2023-07-30T04:29:50;14.20;;;6.13;;
75135;SDS011;63707;52.212;9.540;2023-07-30T04:32:15;17.02;;;5.93;;
75135;SDS011;63707;52.212;9.540;2023-07-30T04:34:41;10.80;;;5.47;;
75135;SDS011;63707;52.212;9.540;2023-07-30T04:37:06;12.15;;;6.10;;
75135;SDS011;63707;52.212;9.540;2023-07-30T04:39:32;13.50;;;6.28;;
75135;SDS011;63707;52.212;9.540;2023-07-30T04:41:57;14.80;;;6.15;;
75135;SDS011;63707;52.212;9.540;2023-07-30T04:44:23;11.75;;;6.13;;
75135;SDS011;63707;52.212;9.540;2023-07-30T04:46:50;10.55;;;6.28;;
75135;SDS011;63707;52.212;9.540;2023-07-30T04:49:15;12.07;;;7.22;;
75135;SDS011;63707;52.212;9.540;2023-07-30T04:51:41;19.25;;;7.68;;
75135;SDS011;63707;52.212;9.540;2023-07-30T04:54:06;16.55;;;7.05;;
75135;SDS011;63707;52.212;9.540;2023-07-30T04:56:32;13.00;;;6.95;;
75135;SDS011;63707;52.212;9.540;2023-07-30T04:58:57;16.60;;;7.25;;
75135;SDS011;63707;52.212;9.540;2023-07-30T05:01:23;13.73;;;6.97;;
75135;SDS011;63707;52.212;9.540;2023-07-30T05:03:50;15.73;;;8.63;;
75135;SDS011;63707;52.212;9.540;2023-07-30T05:06:16;12.45;;;7.82;;
75135;SDS011;63707;52.212;9.540;2023-07-30T05:08:41;16.27;;;8.90;;
75135;SDS011;63707;52.212;9.540;2023-07-30T05:11:07;22.67;;;8.88;;
75135;SDS011;63707;52.212;9.540;2023-07-30T05:13:32;16.95;;;10.88;;
75135;SDS011;63707;52.212;9.540;2023-07-30T05:15:58;18.80;;;10.10;;
75135;SDS011;63707;52.212;9.540;2023-07-30T05:18:23;21.27;;;11.05;;
75135;SDS011;63707;52.212;9.540;2023-07-30T05:20:50;19.30;;;10.93;;
75135;SDS011;63707;52.212;9.540;2023-07-30T05:23:16;19.13;;;10.38;;
75135;SDS011;63707;52.212;9.540;2023-07-30T05:25:41;23.33;;;11.90;;
75135;SDS011;63707;52.212;9.540;2023-07-30T05:28:07;21.90;;;9.77;;
75135;SDS011;63707;52.212;9.540;2023-07-30T05:30:32;17.30;;;9.65;;
75135;SDS011;63707;52.212;9.540;2023-07-30T05:32:58;22.20;;;10.95;;
75135;SDS011;63707;52.212;9.540;2023-07-30T05:35:23;19.23;;;10.02;;
75135;SDS011;63707;52.212;9.540;2023-07-30T05:37:50;16.67;;;10.10;;
75135;SDS011;63707;52.212;9.540;2023-07-30T05:40:16;18.33;;;9.82;;
75135;SDS011;63707;52.212;9.540;2023-07-30T05:42:41;25.95;;;10.18;;
75135;SDS011;63707;52.212;9.540;2023-07-30T05:45:07;18.42;;;10.05;;
75135;SDS011;63707;52.212;9.540;2023-07-30T05:47:33;23.00;;;10.35;;
75135;SDS011;63707;52.212;9.540;2023-07-30T05:49:59;19.52;;;9.55;;
75135;SDS011;63707;52.212;9.540;2023-07-30T05:52:24;22.20;;;10.60;;
75135;SDS011;63707;52.212;9.540;2023-07-30T05:54:51;20.73;;;10.02;;
75135;SDS011;63707;52.212;9.540;2023-07-30T05:57:16;20.92;;;8.68;;
75135;SDS011;63707;52.212;9.540;2023-07-30T05:59:42;14.60;;;6.68;;
75135;SDS011;63707;52.212;9.540;2023-07-30T06:02:07;15.82;;;7.25;;
75135;SDS011;63707;52.212;9.540;2023-07-30T06:04:33;16.52;;;6.32;;
75135;SDS011;63707;52.212;9.540;2023-07-30T06:06:59;11.75;;;5.70;;
75135;SDS011;63707;52.212;9.540;2023-07-30T06:09:25;14.98;;;5.60;;
75135;SDS011;63707;52.212;9.540;2023-07-30T06:11:52;10.25;;;4.90;;
75135;SDS011;63707;52.212;9.540;2023-07-30T06:14:18;12.88;;;4.97;;
75135;SDS011;63707;52.212;9.540;2023-07-30T06:16:43;11.20;;;4.50;;
75135;SDS011;63707;52.212;9.540;2023-07-30T06:19:09;10.60;;;4.03;;
75135;SDS011;63707;52.212;9.540;2023-07-30T06:21:34;11.98;;;4.80;;
75135;SDS011;63707;52.212;9.540;2023-07-30T06:24:00;10.45;;;3.90;;
75135;SDS011;63707;52.212;9.540;2023-07-30T06:26:26;13.00;;;3.72;;
75135;SDS011;63707;52.212;9.540;2023-07-30T06:28:53;12.63;;;4.93;;
75135;SDS011;63707;52.212;9.540;2023-07-30T06:31:18;15.38;;;4.32;;
75135;SDS011;63707;52.212;9.540;2023-07-30T06:33:44;11.05;;;3.30;;
75135;SDS011;63707;52.212;9.540;2023-07-30T06:36:09;8.60;;;3.05;;
75135;SDS011;63707;52.212;9.540;2023-07-30T06:38:35;8.70;;;3.30;;
75135;SDS011;63707;52.212;9.540;2023-07-30T06:41:00;7.90;;;3.20;;
75135;SDS011;63707;52.212;9.540;2023-07-30T06:43:26;8.38;;;2.92;;
75135;SDS011;63707;52.212;9.540;2023-07-30T06:45:53;11.15;;;3.05;;
75135;SDS011;63707;52.212;9.540;2023-07-30T06:48:20;12.32;;;2.97;;
75135;SDS011;63707;52.212;9.540;2023-07-30T06:50:45;8.07;;;2.90;;
75135;SDS011;63707;52.212;9.540;2023-07-30T06:53:11;9.80;;;2.53;;
75135;SDS011;63707;52.212;9.540;2023-07-30T06:55:36;9.23;;;2.70;;
75135;SDS011;63707;52.212;9.540;2023-07-30T06:58:02;8.35;;;2.72;;
75135;SDS011;63707;52.212;9.540;2023-07-30T07:00:27;7.03;;;2.70;;
75135;SDS011;63707;52.212;9.540;2023-07-30T07:02:54;6.90;;;3.50;;
75135;SDS011;63707;52.212;9.540;2023-07-30T07:05:19;9.98;;;3.35;;
75135;SDS011;63707;52.212;9.540;2023-07-30T07:07:45;10.93;;;3.45;;
75135;SDS011;63707;52.212;9.540;2023-07-30T07:10:10;9.00;;;3.38;;
75135;SDS011;63707;52.212;9.540;2023-07-30T07:12:36;8.35;;;2.80;;
75135;SDS011;63707;52.212;9.540;2023-07-30T07:15:03;7.38;;;2.70;;
75135;SDS011;63707;52.212;9.540;2023-07-30T07:17:29;8.80;;;3.15;;
75135;SDS011;63707;52.212;9.540;2023-07-30T07:19:56;11.18;;;3.15;;
75135;SDS011;63707;52.212;9.540;2023-07-30T07:22:21;7.65;;;2.58;;
75135;SDS011;63707;52.212;9.540;2023-07-30T07:24:47;5.32;;;2.60;;
75135;SDS011;63707;52.212;9.540;2023-07-30T07:27:13;8.98;;;2.50;;
75135;SDS011;63707;52.212;9.540;2023-07-30T07:29:38;12.35;;;3.03;;
75135;SDS011;63707;52.212;9.540;2023-07-30T07:32:04;7.70;;;2.67;;
75135;SDS011;63707;52.212;9.540;2023-07-30T07:34:30;11.73;;;3.80;;
75135;SDS011;63707;52.212;9.540;2023-07-30T07:36:57;7.57;;;2.63;;
75135;SDS011;63707;52.212;9.540;2023-07-30T07:39:23;10.20;;;2.97;;
75135;SDS011;63707;52.212;9.540;2023-07-30T07:41:48;7.60;;;2.72;;
75135;SDS011;63707;52.212;9.540;2023-07-30T07:44:14;8.55;;;2.63;;
75135;SDS011;63707;52.212;9.540;2023-07-30T07:46:39;7.22;;;2.50;;
75135;SDS011;63707;52.212;9.540;2023-07-30T07:49:04;7.95;;;2.83;;
75135;SDS011;63707;52.212;9.540;2023-07-30T07:51:30;10.07;;;3.13;;
75135;SDS011;63707;52.212;9.540;2023-07-30T07:53:57;7.68;;;2.90;;
75135;SDS011;63707;52.212;9.540;2023-07-30T07:56:23;7.20;;;2.97;;
75135;SDS011;63707;52.212;9.540;2023-07-30T07:58:48;4.53;;;2.42;;
75135;SDS011;63707;52.212;9.540;2023-07-30T08:01:14;9.85;;;3.10;;
75135;SDS011;63707;52.212;9.540;2023-07-30T08:03:39;10.15;;;3.20;;
75135;SDS011;63707;52.212;9.540;2023-07-30T08:06:05;10.30;;;3.30;;
75135;SDS011;63707;52.212;9.540;2023-07-30T08:08:31;8.30;;;2.75;;
75135;SDS011;63707;52.212;9.540;2023-07-30T08:10:57;10.57;;;2.83;;
75135;SDS011;63707;52.212;9.540;2023-07-30T08:13:23;8.30;;;2.63;;
75135;SDS011;63707;52.212;9.540;2023-07-30T08:15:48;8.80;;;2.67;;
75135;SDS011;63707;52.212;9.540;2023-07-30T08:18:14;5.22;;;2.88;;
75135;SDS011;63707;52.212;9.540;2023-07-30T08:20:39;9.93;;;2.97;;
75135;SDS011;63707;52.212;9.540;2023-07-30T08:23:05;5.82;;;2.92;;
75135;SDS011;63707;52.212;9.540;2023-07-30T08:25:30;12.13;;;3.13;;
75135;SDS011;63707;52.212;9.540;2023-07-30T08:27:57;7.32;;;3.10;;
75135;SDS011;63707;52.212;9.540;2023-07-30T08:30:23;9.93;;;3.80;;
75135;SDS011;63707;52.212;9.540;2023-07-30T08:32:48;10.70;;;3.65;;
75135;SDS011;63707;52.212;9.540;2023-07-30T08:35:13;9.18;;;3.50;;
75135;SDS011;63707;52.212;9.540;2023-07-30T08:37:39;8.77;;;4.18;;
75135;SDS011;63707;52.212;9.540;2023-07-30T08:40:05;11.00;;;4.53;;
75135;SDS011;63707;52.212;9.540;2023-07-30T08:42:31;10.68;;;4.90;;
75135;SDS011;63707;52.212;9.540;2023-07-30T08:44:59;8.10;;;3.90;;
75135;SDS011;63707;52.212;9.540;2023-07-30T08:47:24;7.13;;;3.30;;
75135;SDS011;63707;52.212;9.540;2023-07-30T08:49:50;7.90;;;3.65;;
75135;SDS011;63707;52.212;9.540;2023-07-30T08:52:16;6.93;;;3.20;;
75135;SDS011;63707;52.212;9.540;2023-07-30T08:54:42;7.57;;;2.95;;
75135;SDS011;63707;52.212;9.540;2023-07-30T08:57:09;7.13;;;3.13;;
75135;SDS011;63707;52.212;9.540;2023-07-30T08:59:37;8.73;;;2.90;;
75135;SDS011;63707;52.212;9.540;2023-07-30T09:02:08;10.48;;;3.65;;
75135;SDS011;63707;52.212;9.540;2023-07-30T09:04:40;7.22;;;3.00;;
75135;SDS011;63707;52.212;9.540;2023-07-30T09:07:08;8.25;;;3.10;;
75135;SDS011;63707;52.212;9.540;2023-07-30T09:09:34;7.88;;;3.20;;
75135;SDS011;63707;52.212;9.540;2023-07-30T09:12:00;9.77;;;3.42;;
75135;SDS011;63707;52.212;9.540;2023-07-30T09:14:26;5.53;;;3.00;;
75135;SDS011;63707;52.212;9.540;2023-07-30T09:16:56;6.93;;;3.35;;
75135;SDS011;63707;52.212;9.540;2023-07-30T09:19:23;6.88;;;3.05;;
75135;SDS011;63707;52.212;9.540;2023-07-30T09:21:49;11.90;;;3.17;;
75135;SDS011;63707;52.212;9.540;2023-07-30T09:24:20;11.77;;;3.60;;
75135;SDS011;63707;52.212;9.540;2023-07-30T09:26:46;7.63;;;3.40;;
75135;SDS011;63707;52.212;9.540;2023-07-30T09:29:12;10.77;;;4.35;;
75135;SDS011;63707;52.212;9.540;2023-07-30T09:31:47;11.82;;;4.38;;
75135;SDS011;63707;52.212;9.540;2023-07-30T09:34:16;7.88;;;4.05;;
75135;SDS011;63707;52.212;9.540;2023-07-30T09:36:45;11.80;;;4.47;;
75135;SDS011;63707;52.212;9.540;2023-07-30T09:39:14;11.88;;;4.88;;
75135;SDS011;63707;52.212;9.540;2023-07-30T09:41:41;9.35;;;4.72;;
75135;SDS011;63707;52.212;9.540;2023-07-30T09:44:07;8.98;;;4.93;;
75135;SDS011;63707;52.212;9.540;2023-07-30T09:46:34;10.43;;;4.60;;
75135;SDS011;63707;52.212;9.540;2023-07-30T09:49:07;14.25;;;5.15;;
75135;SDS011;63707;52.212;9.540;2023-07-30T09:51:33;13.77;;;5.40;;
75135;SDS011;63707;52.212;9.540;2023-07-30T09:54:00;15.93;;;6.05;;
75135;SDS011;63707;52.212;9.540;2023-07-30T09:56:26;14.50;;;6.20;;
75135;SDS011;63707;52.212;9.540;2023-07-30T09:58:52;10.45;;;6.40;;
75135;SDS011;63707;52.212;9.540;2023-07-30T10:01:17;13.40;;;6.68;;
75135;SDS011;63707;52.212;9.540;2023-07-30T10:03:47;12.05;;;6.43;;
75135;SDS011;63707;52.212;9.540;2023-07-30T10:06:14;19.92;;;7.13;;
75135;SDS011;63707;52.212;9.540;2023-07-30T10:08:41;14.20;;;7.32;;
75135;SDS011;63707;52.212;9.540;2023-07-30T10:11:09;13.65;;;7.80;;
75135;SDS011;63707;52.212;9.540;2023-07-30T10:13:37;15.18;;;7.85;;
75135;SDS011;63707;52.212;9.540;2023-07-30T10:16:08;18.45;;;8.35;;
75135;SDS011;63707;52.212;9.540;2023-07-30T10:18:37;18.00;;;8.30;;
75135;SDS011;63707;52.212;9.540;2023-07-30T10:21:04;15.27;;;8.15;;
75135;SDS011;63707;52.212;9.540;2023-07-30T10:23:32;20.15;;;8.70;;
75135;SDS011;63707;52.212;9.540;2023-07-30T10:25:58;17.63;;;8.57;;
75135;SDS011;63707;52.212;9.540;2023-07-30T10:28:32;17.48;;;8.63;;
75135;SDS011;63707;52.212;9.540;2023-07-30T10:30:59;16.13;;;8.73;;
75135;SDS011;63707;52.212;9.540;2023-07-30T10:36:09;17.40;;;7.93;;
75135;SDS011;63707;52.212;9.540;2023-07-30T10:38:35;15.20;;;8.65;;
75135;SDS011;63707;52.212;9.540;2023-07-30T10:41:01;15.02;;;7.90;;
75135;SDS011;63707;52.212;9.540;2023-07-30T10:43:29;14.38;;;8.70;;
75135;SDS011;63707;52.212;9.540;2023-07-30T10:45:56;17.60;;;9.60;;
75135;SDS011;63707;52.212;9.540;2023-07-30T10:48:29;18.85;;;10.07;;
75135;SDS011;63707;52.212;9.540;2023-07-30T10:50:55;17.58;;;9.43;;
75135;SDS011;63707;52.212;9.540;2023-07-30T10:53:20;16.13;;;9.73;;
75135;SDS011;63707;52.212;9.540;2023-07-30T10:55:45;18.10;;;10.02;;
75135;SDS011;63707;52.212;9.540;2023-07-30T10:58:11;19.48;;;9.70;;
75135;SDS011;63707;52.212;9.540;2023-07-30T11:00:38;15.63;;;10.23;;
75135;SDS011;63707;52.212;9.540;2023-07-30T11:03:05;16.35;;;9.75;;
75135;SDS011;63707;52.212;9.540;2023-07-30T11:05:30;14.50;;;9.52;;
75135;SDS011;63707;52.212;9.540;2023-07-30T11:07:56;15.55;;;9.43;;
75135;SDS011;63707;52.212;9.540;2023-07-30T11:10:21;15.65;;;9.68;;
75135;SDS011;63707;52.212;9.540;2023-07-30T11:12:48;21.15;;;10.65;;
75135;SDS011;63707;52.212;9.540;2023-07-30T11:15:15;19.75;;;11.18;;
75135;SDS011;63707;52.212;9.540;2023-07-30T11:17:40;16.05;;;9.93;;
75135;SDS011;63707;52.212;9.540;2023-07-30T11:20:07;15.27;;;10.40;;
75135;SDS011;63707;52.212;9.540;2023-07-30T11:22:46;18.70;;;10.70;;
75135;SDS011;63707;52.212;9.540;2023-07-30T11:25:15;18.33;;;10.32;;
75135;SDS011;63707;52.212;9.540;2023-07-30T11:27:44;15.40;;;9.68;;
75135;SDS011;63707;52.212;9.540;2023-07-30T11:30:10;19.10;;;9.77;;
75135;SDS011;63707;52.212;9.540;2023-07-30T11:32:36;18.58;;;9.38;;
75135;SDS011;63707;52.212;9.540;2023-07-30T11:35:02;17.77;;;9.05;;
75135;SDS011;63707;52.212;9.540;2023-07-30T11:37:29;16.95;;;8.80;;
75135;SDS011;63707;52.212;9.540;2023-07-30T11:39:55;15.02;;;8.27;;
75135;SDS011;63707;52.212;9.540;2023-07-30T11:42:20;16.83;;;8.65;;
75135;SDS011;63707;52.212;9.540;2023-07-30T11:44:46;17.15;;;8.35;;
75135;SDS011;63707;52.212;9.540;2023-07-30T11:47:11;12.98;;;7.50;;
75135;SDS011;63707;52.212;9.540;2023-07-30T11:49:54;14.50;;;6.65;;
75135;SDS011;63707;52.212;9.540;2023-07-30T11:54:46;12.13;;;6.10;;
75135;SDS011;63707;52.212;9.540;2023-07-30T11:57:12;13.20;;;6.55;;
75135;SDS011;63707;52.212;9.540;2023-07-30T11:59:37;11.90;;;5.75;;
75135;SDS011;63707;52.212;9.540;2023-07-30T12:02:04;11.82;;;6.15;;
75135;SDS011;63707;52.212;9.540;2023-07-30T12:04:30;11.48;;;5.90;;
75135;SDS011;63707;52.212;9.540;2023-07-30T12:06:56;11.38;;;6.32;;
75135;SDS011;63707;52.212;9.540;2023-07-30T12:09:22;12.75;;;6.00;;
75135;SDS011;63707;52.212;9.540;2023-07-30T12:11:52;11.60;;;5.93;;
75135;SDS011;63707;52.212;9.540;2023-07-30T12:14:19;12.70;;;5.82;;
75135;SDS011;63707;52.212;9.540;2023-07-30T12:16:47;8.77;;;5.88;;
75135;SDS011;63707;52.212;9.540;2023-07-30T12:19:12;11.60;;;5.85;;
75135;SDS011;63707;52.212;9.540;2023-07-30T12:21:38;10.52;;;5.63;;
75135;SDS011;63707;52.212;9.540;2023-07-30T12:24:04;12.20;;;5.80;;
75135;SDS011;63707;52.212;9.540;2023-07-30T12:26:29;9.93;;;6.03;;
75135;SDS011;63707;52.212;9.540;2023-07-30T12:28:57;11.85;;;5.93;;
75135;SDS011;63707;52.212;9.540;2023-07-30T12:31:22;11.70;;;5.85;;
75135;SDS011;63707;52.212;9.540;2023-07-30T12:33:48;14.23;;;5.57;;
75135;SDS011;63707;52.212;9.540;2023-07-30T12:36:15;12.52;;;5.47;;
75135;SDS011;63707;52.212;9.540;2023-07-30T12:38:40;13.43;;;6.13;;
75135;SDS011;63707;52.212;9.540;2023-07-30T12:41:06;10.85;;;5.78;;
75135;SDS011;63707;52.212;9.540;2023-07-30T12:43:31;11.38;;;6.65;;
75135;SDS011;63707;52.212;9.540;2023-07-30T12:45:58;8.57;;;5.22;;
75135;SDS011;63707;52.212;9.540;2023-07-30T12:48:24;10.75;;;6.00;;
75135;SDS011;63707;52.212;9.540;2023-07-30T12:50:49;12.50;;;6.03;;
75135;SDS011;63707;52.212;9.540;2023-07-30T12:53:15;10.15;;;5.50;;
75135;SDS011;63707;52.212;9.540;2023-07-30T12:55:40;10.25;;;5.22;;
75135;SDS011;63707;52.212;9.540;2023-07-30T12:58:07;11.80;;;5.20;;
75135;SDS011;63707;52.212;9.540;2023-07-30T13:00:33;15.48;;;5.25;;
75135;SDS011;63707;52.212;9.540;2023-07-30T13:03:00;10.30;;;4.97;;
75135;SDS011;63707;52.212;9.540;2023-07-30T13:05:27;13.50;;;5.43;;
75135;SDS011;63707;52.212;9.540;2023-07-30T13:07:52;9.50;;;4.80;;
75135;SDS011;63707;52.212;9.540;2023-07-30T13:10:18;11.05;;;5.55;;
75135;SDS011;63707;52.212;9.540;2023-07-30T13:12:43;11.93;;;6.03;;
75135;SDS011;63707;52.212;9.540;2023-07-30T13:15:09;10.52;;;5.45;;
75135;SDS011;63707;52.212;9.540;2023-07-30T13:17:37;10.80;;;5.15;;
75135;SDS011;63707;52.212;9.540;2023-07-30T13:20:04;11.65;;;5.30;;
75135;SDS011;63707;52.212;9.540;2023-07-30T13:22:31;11.00;;;4.63;;
75135;SDS011;63707;52.212;9.540;2023-07-30T13:24:56;8.15;;;4.07;;
75135;SDS011;63707;52.212;9.540;2023-07-30T13:27:22;6.90;;;3.92;;
75135;SDS011;63707;52.212;9.540;2023-07-30T13:29:47;8.05;;;3.75;;
75135;SDS011;63707;52.212;9.540;2023-07-30T13:32:13;7.90;;;3.75;;
75135;SDS011;63707;52.212;9.540;2023-07-30T13:34:39;9.13;;;3.00;;
75135;SDS011;63707;52.212;9.540;2023-07-30T13:37:07;6.90;;;3.28;;
75135;SDS011;63707;52.212;9.540;2023-07-30T13:39:32;10.25;;;4.28;;
75135;SDS011;63707;52.212;9.540;2023-07-30T13:41:58;10.23;;;4.05;;
75135;SDS011;63707;52.212;9.540;2023-07-30T13:44:23;6.38;;;3.40;;
75135;SDS011;63707;52.212;9.540;2023-07-30T13:46:48;7.90;;;3.53;;
75135;SDS011;63707;52.212;9.540;2023-07-30T13:49:15;8.77;;;3.13;;
75135;SDS011;63707;52.212;9.540;2023-07-30T13:51:40;10.57;;;3.30;;
75135;SDS011;63707;52.212;9.540;2023-07-30T13:54:07;7.03;;;3.10;;
75135;SDS011;63707;52.212;9.540;2023-07-30T13:56:33;6.47;;;2.83;;
75135;SDS011;63707;52.212;9.540;2023-07-30T13:58:59;10.07;;;3.22;;
75135;SDS011;63707;52.212;9.540;2023-07-30T14:01:24;11.82;;;3.00;;
75135;SDS011;63707;52.212;9.540;2023-07-30T14:03:50;8.05;;;2.65;;
75135;SDS011;63707;52.212;9.540;2023-07-30T14:06:16;5.65;;;2.80;;
75135;SDS011;63707;52.212;9.540;2023-07-30T14:08:42;5.18;;;2.40;;
75135;SDS011;63707;52.212;9.540;2023-07-30T14:11:09;7.40;;;2.75;;
75135;SDS011;63707;52.212;9.540;2023-07-30T14:13:34;6.55;;;2.53;;
75135;SDS011;63707;52.212;9.540;2023-07-30T14:15:59;8.15;;;2.60;;
75135;SDS011;63707;52.212;9.540;2023-07-30T14:18:25;6.85;;;2.50;;
75135;SDS011;63707;52.212;9.540;2023-07-30T14:20:51;7.38;;;2.40;;
75135;SDS011;63707;52.212;9.540;2023-07-30T14:23:16;6.03;;;2.72;;
75135;SDS011;63707;52.212;9.540;2023-07-30T14:25:42;6.45;;;2.30;;
75135;SDS011;63707;52.212;9.540;2023-07-30T14:28:08;8.40;;;2.50;;
75135;SDS011;63707;52.212;9.540;2023-07-30T14:30:34;7.07;;;2.55;;
75135;SDS011;63707;52.212;9.540;2023-07-30T14:33:00;6.78;;;1.75;;
75135;SDS011;63707;52.212;9.540;2023-07-30T14:35:26;7.78;;;2.00;;
75135;SDS011;63707;52.212;9.540;2023-07-30T14:37:51;5.57;;;2.17;;